createdAt,value
2019-03-15T00:00:16.894Z,990.98
2019-03-15T00:01:17.093Z,990.94
2019-03-15T00:02:17.009Z,990.98
2019-03-15T00:03:16.855Z,990.91
2019-03-15T00:04:16.844Z,991.02
2019-03-15T00:05:16.850Z,991.03
2019-03-15T00:06:16.881Z,991.04
2019-03-15T00:07:16.812Z,991.11
2019-03-15T00:08:17.121Z,991.13
2019-03-15T00:09:16.790Z,991.18
2019-03-15T00:10:16.779Z,991.15
2019-03-15T00:11:16.775Z,991.22
2019-03-15T00:12:16.757Z,991.14
2019-03-15T00:13:16.933Z,991.20
2019-03-15T00:14:16.736Z,991.21
2019-03-15T00:15:18.403Z,991.22
2019-03-15T00:16:16.739Z,991.23
2019-03-15T00:17:16.714Z,991.18
2019-03-15T00:18:16.691Z,991.22
2019-03-15T00:19:17.214Z,991.33
2019-03-15T00:20:16.659Z,991.27
2019-03-15T00:21:16.659Z,991.29
2019-03-15T00:22:16.657Z,991.34
2019-03-15T00:23:16.676Z,991.33
2019-03-15T00:24:16.638Z,991.37
2019-03-15T00:25:16.990Z,991.36
2019-03-15T00:26:16.884Z,991.41
2019-03-15T00:27:23.307Z,991.40
2019-03-15T00:28:16.608Z,991.36
2019-03-15T00:29:16.606Z,991.44
2019-03-15T00:30:16.550Z,991.47
2019-03-15T00:31:16.972Z,991.45
2019-03-15T00:32:16.543Z,991.47
2019-03-15T00:33:16.524Z,991.46
2019-03-15T00:34:16.737Z,991.48
2019-03-15T00:35:16.495Z,991.43
2019-03-15T00:36:17.796Z,991.53
2019-03-15T00:37:16.786Z,991.56
2019-03-15T00:38:16.469Z,991.61
2019-03-15T00:39:16.495Z,991.54
2019-03-15T00:40:16.819Z,991.58
2019-03-15T00:41:16.428Z,991.64
2019-03-15T00:42:16.673Z,991.63
2019-03-15T00:43:16.570Z,991.65
2019-03-15T00:44:16.418Z,991.62
2019-03-15T00:45:16.386Z,991.67
2019-03-15T00:46:16.376Z,991.63
2019-03-15T00:47:17.418Z,991.66
2019-03-15T00:48:16.360Z,991.72
2019-03-15T00:49:16.501Z,991.67
2019-03-15T00:50:16.340Z,991.75
2019-03-15T00:51:16.327Z,991.74
2019-03-15T00:52:16.351Z,991.75
2019-03-15T00:53:16.297Z,991.78
2019-03-15T00:54:16.536Z,991.76
2019-03-15T00:55:16.284Z,991.76
2019-03-15T00:56:16.280Z,991.75
2019-03-15T00:57:17.258Z,991.73
2019-03-15T00:58:16.239Z,991.72
2019-03-15T00:59:16.235Z,991.75
2019-03-15T01:00:16.502Z,991.79
2019-03-15T01:01:16.668Z,991.73
2019-03-15T01:02:17.036Z,991.84
2019-03-15T01:03:16.409Z,991.81
2019-03-15T01:04:16.177Z,991.75
2019-03-15T01:05:16.262Z,991.81
2019-03-15T01:06:16.354Z,991.91
2019-03-15T01:07:17.104Z,991.81
2019-03-15T01:08:19.606Z,991.83
2019-03-15T01:09:16.135Z,991.93
2019-03-15T01:10:16.111Z,991.90
2019-03-15T01:11:16.107Z,991.90
2019-03-15T01:12:16.201Z,991.92
2019-03-15T01:13:16.109Z,991.91
2019-03-15T01:14:16.631Z,991.89
2019-03-15T01:15:16.352Z,991.93
2019-03-15T01:16:16.149Z,991.83
2019-03-15T01:17:16.069Z,991.93
2019-03-15T01:18:16.659Z,991.93
2019-03-15T01:19:16.384Z,991.98
2019-03-15T01:20:16.005Z,991.88
2019-03-15T01:21:15.990Z,991.84
2019-03-15T01:22:15.976Z,991.90
2019-03-15T01:23:16.004Z,991.86
2019-03-15T01:24:16.011Z,991.87
2019-03-15T01:25:16.367Z,991.89
2019-03-15T01:26:15.946Z,991.90
2019-03-15T01:27:16.011Z,991.94
2019-03-15T01:28:15.954Z,991.92
2019-03-15T01:29:15.952Z,991.94
2019-03-15T01:30:15.898Z,991.77
2019-03-15T01:31:17.068Z,992.00
2019-03-15T01:32:15.877Z,991.97
2019-03-15T01:33:15.911Z,991.98
2019-03-15T01:34:15.860Z,991.98
2019-03-15T01:35:16.509Z,991.96
2019-03-15T01:36:16.069Z,991.97
2019-03-15T01:37:15.816Z,992.01
2019-03-15T01:38:15.826Z,991.94
2019-03-15T01:39:16.487Z,991.92
2019-03-15T01:40:15.793Z,991.95
2019-03-15T01:41:16.081Z,991.96
2019-03-15T01:42:15.765Z,991.93
2019-03-15T01:43:15.750Z,991.96
2019-03-15T01:44:15.738Z,991.94
2019-03-15T01:45:15.729Z,991.98
2019-03-15T01:46:16.085Z,991.91
2019-03-15T01:47:15.721Z,992.00
2019-03-15T01:48:15.797Z,992.00
2019-03-15T01:49:15.723Z,992.00
2019-03-15T01:50:15.670Z,991.97
2019-03-15T01:51:15.683Z,991.99
2019-03-15T01:52:15.815Z,991.90
2019-03-15T01:53:16.820Z,992.01
2019-03-15T01:54:15.630Z,991.94
2019-03-15T01:55:15.623Z,992.01
2019-03-15T01:56:15.605Z,992.04
2019-03-15T01:57:15.606Z,992.03
2019-03-15T01:58:15.996Z,992.01
2019-03-15T01:59:15.573Z,992.02
2019-03-15T02:00:15.556Z,992.05
2019-03-15T02:01:15.564Z,992.02
2019-03-15T02:02:15.573Z,991.93
2019-03-15T02:03:15.671Z,992.05
2019-03-15T02:04:16.050Z,992.11
2019-03-15T02:05:15.526Z,992.06
2019-03-15T02:06:17.474Z,992.05
2019-03-15T02:07:15.482Z,992.06
2019-03-15T02:08:15.481Z,992.06
2019-03-15T02:09:15.455Z,992.04
2019-03-15T02:10:15.549Z,992.06
2019-03-15T02:11:16.273Z,992.02
2019-03-15T02:12:15.429Z,992.05
2019-03-15T02:13:15.421Z,992.03
2019-03-15T02:14:15.435Z,992.11
2019-03-15T02:15:15.559Z,992.07
2019-03-15T02:16:15.383Z,992.13
2019-03-15T02:17:15.400Z,992.08
2019-03-15T02:18:15.397Z,992.06
2019-03-15T02:19:15.364Z,992.05
2019-03-15T02:20:15.506Z,991.98
2019-03-15T02:21:15.939Z,992.05
2019-03-15T02:22:15.353Z,992.02
2019-03-15T02:23:15.319Z,992.12
2019-03-15T02:24:15.304Z,992.06
2019-03-15T02:25:15.579Z,992.09
2019-03-15T02:26:15.273Z,992.09
2019-03-15T02:27:16.055Z,992.11
2019-03-15T02:28:15.261Z,992.10
2019-03-15T02:29:15.240Z,992.17
2019-03-15T02:30:15.241Z,992.29
2019-03-15T02:31:15.220Z,992.29
2019-03-15T02:32:15.309Z,992.27
2019-03-15T02:33:15.373Z,992.25
2019-03-15T02:34:15.196Z,992.31
2019-03-15T02:35:15.422Z,992.27
2019-03-15T02:36:15.300Z,992.28
2019-03-15T02:37:15.198Z,992.28
2019-03-15T02:38:15.143Z,992.31
2019-03-15T02:39:15.181Z,992.36
2019-03-15T02:40:15.304Z,992.36
2019-03-15T02:41:15.118Z,992.37
2019-03-15T02:42:15.428Z,992.42
2019-03-15T02:43:15.089Z,992.45
2019-03-15T02:44:15.075Z,992.44
2019-03-15T02:45:15.207Z,992.49
2019-03-15T02:46:15.058Z,992.52
2019-03-15T02:47:15.059Z,992.46
2019-03-15T02:48:15.374Z,992.35
2019-03-15T02:49:15.021Z,992.48
2019-03-15T02:50:15.012Z,992.56
2019-03-15T02:51:15.191Z,992.59
2019-03-15T02:52:15.768Z,992.58
2019-03-15T02:53:15.098Z,992.57
2019-03-15T02:54:14.966Z,992.52
2019-03-15T02:55:15.223Z,992.59
2019-03-15T02:56:15.129Z,992.64
2019-03-15T02:57:14.938Z,992.56
2019-03-15T02:58:14.937Z,992.61
2019-03-15T02:59:15.111Z,992.64
2019-03-15T03:00:14.900Z,992.61
2019-03-15T03:01:14.896Z,992.60
2019-03-15T03:02:14.888Z,992.63
2019-03-15T03:03:14.899Z,992.66
2019-03-15T03:04:14.868Z,992.63
2019-03-15T03:05:15.329Z,992.68
2019-03-15T03:06:14.840Z,992.64
2019-03-15T03:07:14.840Z,992.67
2019-03-15T03:08:14.823Z,992.63
2019-03-15T03:09:14.948Z,992.61
2019-03-15T03:10:14.792Z,992.61
2019-03-15T03:11:15.139Z,992.65
2019-03-15T03:12:14.771Z,992.66
2019-03-15T03:13:14.767Z,992.71
2019-03-15T03:14:14.752Z,992.77
2019-03-15T03:15:14.754Z,992.77
2019-03-15T03:16:14.734Z,992.71
2019-03-15T03:17:14.997Z,992.73
2019-03-15T03:18:15.112Z,992.72
2019-03-15T03:19:14.692Z,992.72
2019-03-15T03:20:14.694Z,992.74
2019-03-15T03:21:15.277Z,992.72
2019-03-15T03:22:14.676Z,992.77
2019-03-15T03:23:14.963Z,992.77
2019-03-15T03:24:14.642Z,992.77
2019-03-15T03:25:14.634Z,992.84
2019-03-15T03:26:14.737Z,992.84
2019-03-15T03:27:14.603Z,992.78
2019-03-15T03:28:15.100Z,992.87
2019-03-15T03:29:14.587Z,992.88
2019-03-15T03:30:16.427Z,993.01
2019-03-15T03:31:15.885Z,993.00
2019-03-15T03:32:14.878Z,993.00
2019-03-15T03:33:14.858Z,992.95
2019-03-15T03:34:15.039Z,993.00
2019-03-15T03:35:14.521Z,993.09
2019-03-15T03:36:14.500Z,993.08
2019-03-15T03:37:14.499Z,993.13
2019-03-15T03:38:14.582Z,993.18
2019-03-15T03:39:14.489Z,993.30
2019-03-15T03:40:14.673Z,993.25
2019-03-15T03:41:14.542Z,993.20
2019-03-15T03:42:14.601Z,993.18
2019-03-15T03:43:14.478Z,993.25
2019-03-15T03:44:14.666Z,993.22
2019-03-15T03:45:14.560Z,993.30
2019-03-15T03:46:15.047Z,993.23
2019-03-15T03:47:14.393Z,993.27
2019-03-15T03:48:15.736Z,993.23
2019-03-15T03:49:14.396Z,993.30
2019-03-15T03:50:14.350Z,993.25
2019-03-15T03:51:14.548Z,993.26
2019-03-15T03:52:14.329Z,993.36
2019-03-15T03:53:14.590Z,993.38
2019-03-15T03:54:14.320Z,993.36
2019-03-15T03:55:14.292Z,993.34
2019-03-15T03:56:14.285Z,993.36
2019-03-15T03:57:14.752Z,993.35
2019-03-15T03:58:14.341Z,993.30
2019-03-15T03:59:14.761Z,993.35
2019-03-15T04:00:14.247Z,993.39
2019-03-15T04:01:14.229Z,993.38
2019-03-15T04:02:14.290Z,993.37
2019-03-15T04:03:14.210Z,993.35
2019-03-15T04:04:14.193Z,993.43
2019-03-15T04:05:14.333Z,993.42
2019-03-15T04:06:14.179Z,993.48
2019-03-15T04:07:14.162Z,993.44
2019-03-15T04:08:14.156Z,993.48
2019-03-15T04:09:14.140Z,993.52
2019-03-15T04:10:14.133Z,993.51
2019-03-15T04:11:14.518Z,993.51
2019-03-15T04:12:14.139Z,993.43
2019-03-15T04:13:14.249Z,993.50
2019-03-15T04:14:14.099Z,993.50
2019-03-15T04:15:14.295Z,993.57
2019-03-15T04:16:14.448Z,993.54
2019-03-15T04:17:14.294Z,993.57
2019-03-15T04:18:14.044Z,993.58
2019-03-15T04:19:14.029Z,993.58
2019-03-15T04:20:14.026Z,993.54
2019-03-15T04:21:14.081Z,993.60
2019-03-15T04:22:14.394Z,993.47
2019-03-15T04:23:15.116Z,993.50
2019-03-15T04:24:13.988Z,993.59
2019-03-15T04:25:13.988Z,993.55
2019-03-15T04:26:13.974Z,993.52
2019-03-15T04:27:13.982Z,993.53
2019-03-15T04:28:14.400Z,993.59
2019-03-15T04:29:13.959Z,993.71
2019-03-15T04:30:14.097Z,993.65
2019-03-15T04:31:14.081Z,993.73
2019-03-15T04:32:14.152Z,993.63
2019-03-15T04:33:14.340Z,993.75
2019-03-15T04:34:14.262Z,993.68
2019-03-15T04:35:15.711Z,993.75
2019-03-15T04:36:14.661Z,993.68
2019-03-15T04:37:13.959Z,993.76
2019-03-15T04:38:14.613Z,993.76
2019-03-15T04:39:14.625Z,993.75
2019-03-15T04:40:13.798Z,993.75
2019-03-15T04:41:14.046Z,993.76
2019-03-15T04:42:13.779Z,993.80
2019-03-15T04:43:13.765Z,993.78
2019-03-15T04:44:13.760Z,993.76
2019-03-15T04:45:14.049Z,993.82
2019-03-15T04:46:13.749Z,993.75
2019-03-15T04:47:14.120Z,993.78
2019-03-15T04:48:14.786Z,993.82
2019-03-15T04:49:13.805Z,993.80
2019-03-15T04:50:13.700Z,993.81
2019-03-15T04:51:14.187Z,993.85
2019-03-15T04:52:14.137Z,993.85
2019-03-15T04:53:15.066Z,993.83
2019-03-15T04:54:13.645Z,993.91
2019-03-15T04:55:13.669Z,993.95
2019-03-15T04:56:15.539Z,993.88
2019-03-15T04:57:13.607Z,994.03
2019-03-15T04:58:14.005Z,993.97
2019-03-15T04:59:13.602Z,993.95
2019-03-15T05:00:13.584Z,993.96
2019-03-15T05:01:13.587Z,993.98
2019-03-15T05:02:13.558Z,994.04
2019-03-15T05:03:13.540Z,993.92
2019-03-15T05:04:13.973Z,993.92
2019-03-15T05:05:13.521Z,993.97
2019-03-15T05:06:13.933Z,994.09
2019-03-15T05:07:13.502Z,994.09
2019-03-15T05:08:13.489Z,994.11
2019-03-15T05:09:13.484Z,994.16
2019-03-15T05:10:13.464Z,994.13
2019-03-15T05:11:13.596Z,994.15
2019-03-15T05:12:13.509Z,994.17
2019-03-15T05:13:13.513Z,994.17
2019-03-15T05:14:13.439Z,994.16
2019-03-15T05:15:13.418Z,994.08
2019-03-15T05:16:13.402Z,994.22
2019-03-15T05:17:17.899Z,994.18
2019-03-15T05:18:13.385Z,994.20
2019-03-15T05:19:13.408Z,994.14
2019-03-15T05:20:13.356Z,994.14
2019-03-15T05:21:13.440Z,994.18
2019-03-15T05:22:13.336Z,994.18
2019-03-15T05:23:13.676Z,994.27
2019-03-15T05:24:13.342Z,994.28
2019-03-15T05:25:13.301Z,994.10
2019-03-15T05:26:13.333Z,994.24
2019-03-15T05:27:13.278Z,994.24
2019-03-15T05:28:13.273Z,994.26
2019-03-15T05:29:13.394Z,994.30
2019-03-15T05:30:13.249Z,994.23
2019-03-15T05:31:13.234Z,994.32
2019-03-15T05:32:13.233Z,994.36
2019-03-15T05:33:13.384Z,994.25
2019-03-15T05:34:13.217Z,994.36
2019-03-15T05:35:13.394Z,994.39
2019-03-15T05:36:13.344Z,994.42
2019-03-15T05:37:13.188Z,994.48
2019-03-15T05:38:14.990Z,994.47
2019-03-15T05:39:13.150Z,994.42
2019-03-15T05:40:13.670Z,994.45
2019-03-15T05:41:13.126Z,994.53
2019-03-15T05:42:13.238Z,994.50
2019-03-15T05:43:13.110Z,994.49
2019-03-15T05:44:18.471Z,994.53
2019-03-15T05:45:13.414Z,994.60
2019-03-15T05:46:15.527Z,994.57
2019-03-15T05:47:13.876Z,994.58
2019-03-15T05:48:13.058Z,994.55
2019-03-15T05:49:13.038Z,994.64
2019-03-15T05:50:13.411Z,994.61
2019-03-15T05:51:13.263Z,994.57
2019-03-15T05:52:13.006Z,994.59
2019-03-15T05:53:13.349Z,994.63
2019-03-15T05:54:12.980Z,994.62
2019-03-15T05:55:13.151Z,994.62
2019-03-15T05:56:12.988Z,994.71
2019-03-15T05:57:13.006Z,994.71
2019-03-15T05:58:13.084Z,994.74
2019-03-15T05:59:14.959Z,994.77
2019-03-15T06:00:12.918Z,994.80
2019-03-15T06:01:12.906Z,994.75
2019-03-15T06:02:12.898Z,994.71
2019-03-15T06:03:12.967Z,994.72
2019-03-15T06:04:13.003Z,994.76
2019-03-15T06:05:12.860Z,994.84
2019-03-15T06:06:12.848Z,994.84
2019-03-15T06:07:12.841Z,994.81
2019-03-15T06:08:12.860Z,994.93
2019-03-15T06:09:12.820Z,994.89
2019-03-15T06:10:12.971Z,994.88
2019-03-15T06:11:12.797Z,994.78
2019-03-15T06:12:12.795Z,994.87
2019-03-15T06:13:12.796Z,994.86
2019-03-15T06:14:12.767Z,994.93
2019-03-15T06:15:12.756Z,994.99
2019-03-15T06:16:12.815Z,994.98
2019-03-15T06:17:12.732Z,994.97
2019-03-15T06:18:12.729Z,995.06
2019-03-15T06:19:12.736Z,995.07
2019-03-15T06:20:14.008Z,995.04
2019-03-15T06:21:12.688Z,995.05
2019-03-15T06:22:12.973Z,995.08
2019-03-15T06:23:12.866Z,995.10
2019-03-15T06:24:12.663Z,995.09
2019-03-15T06:25:12.640Z,995.05
2019-03-15T06:26:12.639Z,995.12
2019-03-15T06:27:12.892Z,995.09
2019-03-15T06:28:12.615Z,995.22
2019-03-15T06:29:12.604Z,995.14
2019-03-15T06:30:12.600Z,995.16
2019-03-15T06:31:12.601Z,995.16
2019-03-15T06:32:12.603Z,995.20
2019-03-15T06:33:13.006Z,995.16
2019-03-15T06:34:12.565Z,995.18
2019-03-15T06:35:12.540Z,995.24
2019-03-15T06:36:12.537Z,995.21
2019-03-15T06:37:12.519Z,995.16
2019-03-15T06:38:12.503Z,995.23
2019-03-15T06:39:16.523Z,995.10
2019-03-15T06:40:13.766Z,995.23
2019-03-15T06:41:14.675Z,995.27
2019-03-15T06:42:12.498Z,995.25
2019-03-15T06:43:13.464Z,995.26
2019-03-15T06:44:12.886Z,995.29
2019-03-15T06:45:12.453Z,995.26
2019-03-15T06:46:14.702Z,995.23
2019-03-15T06:47:12.460Z,995.28
2019-03-15T06:48:12.384Z,995.29
2019-03-15T06:49:12.538Z,995.31
2019-03-15T06:50:13.580Z,995.29
2019-03-15T06:51:12.383Z,995.33
2019-03-15T06:52:12.637Z,995.36
2019-03-15T06:53:12.374Z,995.34
2019-03-15T06:54:12.326Z,995.31
2019-03-15T06:55:12.322Z,995.32
2019-03-15T06:56:12.298Z,995.26
2019-03-15T06:57:12.302Z,995.28
2019-03-15T06:58:18.226Z,995.32
2019-03-15T06:59:12.324Z,995.36
2019-03-15T07:00:12.252Z,995.34
2019-03-15T07:01:12.331Z,995.38
2019-03-15T07:02:13.718Z,995.40
2019-03-15T07:03:13.023Z,995.37
2019-03-15T07:04:12.220Z,995.39
2019-03-15T07:05:12.623Z,995.42
2019-03-15T07:06:12.203Z,995.41
2019-03-15T07:07:15.106Z,995.45
2019-03-15T07:08:12.910Z,995.39
2019-03-15T07:09:12.176Z,995.38
2019-03-15T07:10:12.143Z,995.41
2019-03-15T07:11:12.146Z,995.46
2019-03-15T07:12:12.137Z,995.45
2019-03-15T07:13:12.114Z,995.47
2019-03-15T07:14:12.560Z,995.46
2019-03-15T07:15:12.359Z,995.41
2019-03-15T07:16:12.186Z,995.47
2019-03-15T07:17:14.716Z,995.50
2019-03-15T07:18:12.530Z,995.53
2019-03-15T07:19:25.664Z,995.45
2019-03-15T07:20:13.043Z,995.48
2019-03-15T07:21:13.299Z,995.42
2019-03-15T07:22:13.459Z,995.49
2019-03-15T07:23:13.350Z,995.56
2019-03-15T07:24:24.422Z,995.48
2019-03-15T07:25:12.991Z,995.47
2019-03-15T07:26:12.350Z,995.53
2019-03-15T07:27:13.434Z,995.45
2019-03-15T07:28:11.964Z,995.52
2019-03-15T07:29:11.959Z,995.42
2019-03-15T07:30:11.951Z,995.49
2019-03-15T07:31:12.028Z,995.53
2019-03-15T07:32:12.194Z,995.48
2019-03-15T07:33:12.068Z,995.48
2019-03-15T07:34:13.776Z,995.54
2019-03-15T07:35:12.144Z,995.48
2019-03-15T07:36:11.986Z,995.48
2019-03-15T07:37:12.534Z,995.46
2019-03-15T07:38:11.944Z,995.45
2019-03-15T07:39:12.950Z,995.57
2019-03-15T07:40:11.821Z,995.54
2019-03-15T07:41:12.185Z,995.53
2019-03-15T07:42:30.388Z,995.55
2019-03-15T07:43:12.375Z,995.51
2019-03-15T07:44:12.658Z,995.51
2019-03-15T07:45:11.764Z,995.51
2019-03-15T07:46:11.773Z,995.60
2019-03-15T07:47:11.759Z,995.66
2019-03-15T07:48:22.546Z,995.65
2019-03-15T07:49:12.930Z,995.68
2019-03-15T07:50:14.290Z,995.63
2019-03-15T07:51:11.700Z,995.74
2019-03-15T07:52:11.732Z,995.73
2019-03-15T07:53:11.685Z,995.69
2019-03-15T07:54:11.676Z,995.72
2019-03-15T07:55:12.208Z,995.72
2019-03-15T07:56:11.641Z,995.70
2019-03-15T07:57:11.653Z,995.69
2019-03-15T07:58:11.618Z,995.67
2019-03-15T07:59:11.615Z,995.66
2019-03-15T08:00:11.617Z,995.68
2019-03-15T08:01:12.023Z,995.74
2019-03-15T08:02:11.581Z,995.75
2019-03-15T08:03:11.596Z,995.73
2019-03-15T08:04:17.067Z,995.76
2019-03-15T08:05:12.546Z,995.73
2019-03-15T08:06:12.004Z,995.71
2019-03-15T08:07:11.667Z,995.79
2019-03-15T08:08:11.518Z,995.69
2019-03-15T08:09:11.505Z,995.73
2019-03-15T08:10:11.490Z,995.81
2019-03-15T08:11:12.073Z,995.81
2019-03-15T08:12:11.461Z,995.76
2019-03-15T08:13:11.454Z,995.85
2019-03-15T08:14:11.460Z,995.76
2019-03-15T08:15:11.503Z,995.85
2019-03-15T08:16:11.645Z,995.89
2019-03-15T08:17:11.405Z,995.82
2019-03-15T08:18:11.648Z,995.88
2019-03-15T08:19:11.406Z,995.85
2019-03-15T08:20:11.406Z,995.94
2019-03-15T08:21:11.363Z,995.97
2019-03-15T08:22:11.444Z,995.87
2019-03-15T08:23:11.557Z,995.81
2019-03-15T08:24:11.462Z,995.85
2019-03-15T08:25:11.328Z,995.91
2019-03-15T08:26:11.870Z,995.87
2019-03-15T08:27:11.304Z,995.87
2019-03-15T08:28:11.307Z,995.81
2019-03-15T08:29:11.430Z,995.88
2019-03-15T08:30:11.296Z,995.86
2019-03-15T08:31:11.675Z,995.86
2019-03-15T08:32:11.484Z,995.82
2019-03-15T08:33:11.396Z,995.85
2019-03-15T08:34:11.320Z,995.80
2019-03-15T08:35:11.200Z,995.97
2019-03-15T08:36:11.197Z,996.01
2019-03-15T08:37:11.697Z,995.93
2019-03-15T08:38:11.179Z,995.86
2019-03-15T08:39:11.231Z,995.93
2019-03-15T08:40:11.159Z,995.94
2019-03-15T08:41:11.139Z,995.97
2019-03-15T08:42:11.173Z,995.99
2019-03-15T08:43:12.106Z,996.08
2019-03-15T08:44:11.120Z,996.03
2019-03-15T08:45:11.110Z,996.03
2019-03-15T08:46:11.085Z,995.97
2019-03-15T08:47:11.157Z,996.02
2019-03-15T08:48:11.062Z,995.93
2019-03-15T08:49:11.426Z,996.04
2019-03-15T08:50:14.537Z,996.10
2019-03-15T08:51:11.122Z,996.11
2019-03-15T08:52:11.021Z,996.23
2019-03-15T08:53:11.028Z,996.15
2019-03-15T08:54:11.376Z,996.18
2019-03-15T08:55:11.000Z,996.12
2019-03-15T08:56:14.263Z,996.14
2019-03-15T08:57:10.978Z,996.10
2019-03-15T08:58:14.582Z,996.14
2019-03-15T08:59:12.539Z,996.12
2019-03-15T09:00:10.936Z,996.10
2019-03-15T09:01:11.219Z,996.11
2019-03-15T09:02:10.922Z,996.17
2019-03-15T09:03:10.900Z,996.13
2019-03-15T09:04:15.469Z,996.15
2019-03-15T09:05:11.075Z,996.14
2019-03-15T09:06:10.886Z,996.15
2019-03-15T09:07:10.852Z,996.17
2019-03-15T09:08:11.234Z,996.09
2019-03-15T09:09:10.828Z,996.18
2019-03-15T09:10:21.986Z,996.21
2019-03-15T09:11:12.107Z,996.18
2019-03-15T09:12:10.808Z,996.20
2019-03-15T09:13:10.934Z,996.23
2019-03-15T09:14:10.785Z,996.06
2019-03-15T09:15:10.816Z,996.15
2019-03-15T09:16:10.756Z,996.15
2019-03-15T09:17:11.222Z,996.08
2019-03-15T09:18:10.725Z,996.05
2019-03-15T09:19:10.748Z,996.03
2019-03-15T09:20:10.712Z,995.94
2019-03-15T09:21:11.305Z,995.93
2019-03-15T09:22:10.692Z,995.93
2019-03-15T09:23:10.687Z,995.93
2019-03-15T09:24:10.659Z,995.93
2019-03-15T09:25:19.439Z,995.90
2019-03-15T09:26:12.509Z,995.88
2019-03-15T09:27:10.826Z,995.90
2019-03-15T09:28:10.697Z,995.93
2019-03-15T09:29:10.683Z,995.95
2019-03-15T09:30:22.616Z,995.95
2019-03-15T09:31:11.639Z,995.93
2019-03-15T09:32:11.220Z,995.95
2019-03-15T09:33:10.979Z,995.95
2019-03-15T09:34:10.561Z,996.00
2019-03-15T09:35:10.600Z,996.01
2019-03-15T09:36:10.533Z,995.96
2019-03-15T09:37:10.516Z,995.96
2019-03-15T09:38:10.811Z,995.96
2019-03-15T09:39:10.513Z,995.88
2019-03-15T09:40:10.485Z,995.89
2019-03-15T09:41:10.478Z,995.85
2019-03-15T09:42:10.477Z,995.79
2019-03-15T09:43:10.456Z,995.82
2019-03-15T09:44:10.912Z,995.83
2019-03-15T09:45:10.885Z,995.89
2019-03-15T09:46:10.421Z,995.82
2019-03-15T09:47:10.418Z,995.86
2019-03-15T09:48:10.400Z,995.88
2019-03-15T09:49:11.094Z,995.88
2019-03-15T09:50:21.106Z,995.86
2019-03-15T09:51:11.366Z,995.76
2019-03-15T09:52:10.350Z,995.82
2019-03-15T09:53:10.353Z,995.81
2019-03-15T09:54:10.326Z,995.88
2019-03-15T09:55:10.332Z,995.82
2019-03-15T09:56:10.457Z,995.87
2019-03-15T09:57:10.301Z,995.86
2019-03-15T09:58:10.289Z,995.92
2019-03-15T09:59:10.279Z,995.90
2019-03-15T10:00:10.363Z,995.90
2019-03-15T10:01:10.605Z,995.91
2019-03-15T10:02:13.617Z,995.90
2019-03-15T10:03:21.465Z,995.84
2019-03-15T10:04:11.212Z,995.86
2019-03-15T10:05:11.647Z,995.86
2019-03-15T10:06:15.728Z,995.84
2019-03-15T10:07:11.209Z,995.86
2019-03-15T10:08:10.199Z,995.93
2019-03-15T10:09:10.168Z,995.86
2019-03-15T10:10:13.996Z,995.85
2019-03-15T10:11:10.489Z,995.82
2019-03-15T10:12:10.151Z,995.75
2019-03-15T10:13:10.222Z,995.78
2019-03-15T10:14:10.112Z,995.79
2019-03-15T10:15:10.210Z,995.70
2019-03-15T10:16:10.496Z,995.75
2019-03-15T10:17:10.230Z,995.72
2019-03-15T10:18:10.443Z,995.62
2019-03-15T10:19:10.213Z,995.65
2019-03-15T10:20:12.581Z,995.60
2019-03-15T10:21:10.079Z,995.68
2019-03-15T10:22:10.022Z,995.63
2019-03-15T10:23:11.429Z,995.68
2019-03-15T10:24:10.009Z,995.61
2019-03-15T10:25:10.002Z,995.60
2019-03-15T10:26:10.025Z,995.60
2019-03-15T10:27:09.961Z,995.56
2019-03-15T10:28:09.964Z,995.61
2019-03-15T10:29:15.752Z,995.64
2019-03-15T10:30:10.925Z,995.60
2019-03-15T10:31:10.017Z,995.67
2019-03-15T10:32:09.951Z,995.55
2019-03-15T10:33:09.980Z,995.55
2019-03-15T10:34:10.104Z,995.51
2019-03-15T10:35:10.214Z,995.57
2019-03-15T10:36:10.086Z,995.52
2019-03-15T10:37:09.952Z,995.50
2019-03-15T10:38:10.033Z,995.53
2019-03-15T10:39:10.171Z,995.54
2019-03-15T10:40:09.832Z,995.56
2019-03-15T10:41:10.144Z,995.57
2019-03-15T10:42:09.794Z,995.53
2019-03-15T10:43:09.784Z,995.59
2019-03-15T10:44:09.782Z,995.58
2019-03-15T10:45:09.778Z,995.49
2019-03-15T10:46:09.775Z,995.49
2019-03-15T10:47:10.405Z,995.59
2019-03-15T10:48:09.737Z,995.48
2019-03-15T10:49:09.730Z,995.54
2019-03-15T10:50:09.711Z,995.44
2019-03-15T10:51:09.812Z,995.41
2019-03-15T10:52:10.085Z,995.35
2019-03-15T10:53:10.211Z,995.38
2019-03-15T10:54:09.681Z,995.35
2019-03-15T10:55:09.656Z,995.35
2019-03-15T10:56:11.677Z,995.39
2019-03-15T10:57:09.643Z,995.35
2019-03-15T10:58:09.643Z,995.37
2019-03-15T10:59:09.735Z,995.27
2019-03-15T11:00:09.605Z,995.26
2019-03-15T11:01:11.418Z,995.28
2019-03-15T11:02:09.582Z,995.25
2019-03-15T11:03:12.948Z,995.24
2019-03-15T11:04:09.597Z,995.25
2019-03-15T11:05:09.547Z,995.22
2019-03-15T11:06:09.543Z,995.32
2019-03-15T11:07:09.533Z,995.31
2019-03-15T11:08:09.614Z,995.31
2019-03-15T11:09:09.720Z,995.15
2019-03-15T11:10:09.525Z,995.13
2019-03-15T11:11:09.485Z,995.18
2019-03-15T11:12:09.466Z,995.15
2019-03-15T11:13:09.456Z,995.17
2019-03-15T11:14:09.463Z,995.13
2019-03-15T11:15:09.632Z,995.07
2019-03-15T11:16:09.443Z,995.15
2019-03-15T11:17:09.439Z,995.09
2019-03-15T11:18:09.408Z,995.08
2019-03-15T11:19:09.415Z,995.08
2019-03-15T11:20:09.547Z,994.99
2019-03-15T11:21:09.571Z,994.88
2019-03-15T11:22:11.106Z,994.87
2019-03-15T11:23:09.421Z,994.85
2019-03-15T11:24:09.350Z,994.84
2019-03-15T11:25:09.446Z,994.92
2019-03-15T11:26:14.009Z,994.91
2019-03-15T11:27:09.694Z,994.88
2019-03-15T11:28:09.516Z,994.91
2019-03-15T11:29:09.285Z,994.97
2019-03-15T11:30:09.275Z,995.04
2019-03-15T11:31:09.271Z,994.96
2019-03-15T11:32:09.272Z,995.00
2019-03-15T11:33:09.236Z,994.70
2019-03-15T11:34:10.101Z,994.74
2019-03-15T11:35:09.253Z,994.75
2019-03-15T11:36:09.210Z,994.52
2019-03-15T11:37:09.238Z,994.62
2019-03-15T11:38:09.200Z,994.58
2019-03-15T11:39:09.172Z,994.55
2019-03-15T11:40:10.350Z,994.61
2019-03-15T11:41:09.164Z,994.64
2019-03-15T11:42:09.183Z,994.59
2019-03-15T11:43:10.724Z,994.49
2019-03-15T11:44:09.145Z,994.35
2019-03-15T11:45:09.147Z,994.45
2019-03-15T11:46:09.623Z,994.55
2019-03-15T11:47:09.104Z,994.45
2019-03-15T11:48:09.221Z,994.38
2019-03-15T11:49:09.065Z,994.43
2019-03-15T11:50:09.084Z,994.50
2019-03-15T11:51:09.166Z,994.49
2019-03-15T11:52:09.151Z,994.49
2019-03-15T11:53:09.034Z,994.48
2019-03-15T11:54:09.026Z,994.54
2019-03-15T11:55:09.003Z,994.43
2019-03-15T11:56:09.021Z,994.55
2019-03-15T11:57:09.239Z,994.50
2019-03-15T11:58:09.451Z,994.45
2019-03-15T11:59:09.713Z,994.42
2019-03-15T12:00:08.940Z,994.52
2019-03-15T12:01:08.945Z,994.63
2019-03-15T12:02:10.689Z,994.60
2019-03-15T12:03:09.090Z,994.61
2019-03-15T12:04:09.801Z,994.56
2019-03-15T12:05:08.886Z,994.54
2019-03-15T12:06:08.882Z,994.49
2019-03-15T12:07:10.429Z,994.39
2019-03-15T12:08:09.035Z,994.37
2019-03-15T12:09:08.839Z,994.33
2019-03-15T12:10:08.897Z,994.27
2019-03-15T12:11:08.991Z,994.30
2019-03-15T12:12:10.214Z,994.30
2019-03-15T12:13:09.050Z,994.22
2019-03-15T12:14:09.099Z,994.17
2019-03-15T12:15:08.780Z,994.09
2019-03-15T12:16:08.780Z,994.09
2019-03-15T12:17:09.068Z,993.99
2019-03-15T12:18:08.832Z,993.99
2019-03-15T12:19:08.725Z,993.97
2019-03-15T12:20:08.723Z,993.97
2019-03-15T12:21:08.705Z,993.99
2019-03-15T12:22:08.708Z,994.11
2019-03-15T12:23:09.040Z,994.05
2019-03-15T12:24:08.694Z,993.95
2019-03-15T12:25:09.250Z,993.98
2019-03-15T12:26:10.154Z,994.00
2019-03-15T12:27:08.656Z,993.88
2019-03-15T12:28:08.630Z,993.87